Time;durP1;ratioP1;P1;durP2;ratioP2;P2;SDS_P1;SDS_P2;PMS_P1;PMS_P2;Temp;Humidity;BMP_temperature;BMP_pressure;BME280_temperature;BME280_humidity;BME280_pressure;Samples;Min_cycle;Max_cycle;Signal;HPM_P1;HPM_P2
2022/04/24 00:01:53;;;;;;;1.95;1.85;;;12.40;80.50;;;;;;5013211;28;20219;-74
2022/04/24 00:04:18;;;;;;;5.68;1.98;;;12.40;80.40;;;;;;5015635;28;20216;-75
2022/04/24 00:06:46;;;;;;;1.80;1.70;;;12.30;79.80;;;;;;5011684;28;20189;-75
2022/04/24 00:09:14;;;;;;;4.82;1.85;;;12.20;79.50;;;;;;5014156;28;21234;-74
2022/04/24 00:11:40;;;;;;;2.70;1.73;;;12.20;79.10;;;;;;5011868;28;20187;-74
2022/04/24 00:14:09;;;;;;;2.47;1.52;;;12.20;78.50;;;;;;5011294;28;20169;-75
2022/04/24 00:16:36;;;;;;;2.15;1.95;;;12.20;78.50;;;;;;5004534;28;21094;-74
2022/04/24 00:19:01;;;;;;;2.03;1.92;;;12.20;80.70;;;;;;5015869;28;20784;-74
2022/04/24 00:21:27;;;;;;;3.15;2.08;;;12.10;80.00;;;;;;5015307;28;20191;-75
2022/04/24 00:23:54;;;;;;;3.35;1.58;;;12.10;81.50;;;;;;5011394;28;20193;-74
2022/04/24 00:26:20;;;;;;;3.13;1.60;;;12.10;81.30;;;;;;5017032;28;20208;-74
2022/04/24 00:28:46;;;;;;;1.60;1.50;;;12.00;80.80;;;;;;5013068;28;20752;-75
2022/04/24 00:31:11;;;;;;;2.45;1.85;;;12.00;81.50;;;;;;5011393;28;20219;-75
2022/04/24 00:33:37;;;;;;;1.80;1.70;;;;;;;;;;5010415;28;20181;-74
2022/04/24 00:36:04;;;;;;;2.22;2.05;;;12.00;80.90;;;;;;5011518;28;20197;-74
2022/04/24 00:38:35;;;;;;;3.78;1.90;;;12.00;81.70;;;;;;5012559;28;20195;-74
2022/04/24 00:41:02;;;;;;;1.70;1.58;;;12.00;82.10;;;;;;5011172;28;20271;-76
2022/04/24 00:43:28;;;;;;;1.95;1.65;;;11.90;82.20;;;;;;5012067;28;20308;-75
2022/04/24 00:46:15;;;;;;;4.60;2.00;;;11.90;81.10;;;;;;5009979;28;20291;-74
2022/04/24 00:48:42;;;;;;;1.30;1.20;;;11.80;81.80;;;;;;5006389;28;20579;-75
2022/04/24 00:51:08;;;;;;;2.13;2.00;;;11.80;80.10;;;;;;5014856;28;20180;-75
2022/04/24 00:53:35;;;;;;;2.42;2.28;;;11.70;79.90;;;;;;5011387;28;20181;-75
2022/04/24 00:56:01;;;;;;;2.15;2.05;;;11.70;82.50;;;;;;5011651;28;20635;-75
2022/04/24 00:58:27;;;;;;;3.25;2.03;;;11.70;82.10;;;;;;5010222;28;20287;-75
2022/04/24 01:00:55;;;;;;;1.42;1.33;;;11.70;83.70;;;;;;5008640;28;20198;-74
2022/04/24 01:03:21;;;;;;;2.30;1.58;;;11.60;83.40;;;;;;5011536;28;20687;-75
2022/04/24 01:05:47;;;;;;;2.28;1.77;;;11.60;83.40;;;;;;5010243;28;20333;-73
2022/04/24 01:08:13;;;;;;;1.63;1.42;;;11.60;83.30;;;;;;5009833;28;20270;-74
2022/04/24 01:10:39;;;;;;;1.20;1.13;;;11.60;83.40;;;;;;5012622;28;20312;-74
2022/04/24 01:13:05;;;;;;;2.40;1.60;;;11.60;83.50;;;;;;5011650;28;20267;-74
2022/04/24 01:15:33;;;;;;;1.30;1.20;;;11.60;84.20;;;;;;5007539;28;20327;-74
2022/04/24 01:18:00;;;;;;;1.85;1.30;;;11.50;84.40;;;;;;5010874;28;20177;-74
2022/04/24 01:20:26;;;;;;;1.27;1.27;;;;;;;;;;5012623;28;20183;-74
2022/04/24 01:22:52;;;;;;;3.15;1.90;;;11.50;84.20;;;;;;5010448;28;20200;-73
2022/04/24 01:25:18;;;;;;;2.58;1.90;;;11.50;84.30;;;;;;5014057;28;21984;-74
2022/04/24 01:27:44;;;;;;;1.30;1.30;;;;;;;;;;5016092;28;20180;-74
2022/04/24 01:30:10;;;;;;;2.15;1.30;;;11.40;84.10;;;;;;5010820;28;20810;-74
2022/04/24 01:32:39;;;;;;;1.75;1.65;;;;;;;;;;5010517;28;20185;-74
2022/04/24 01:35:07;;;;;;;1.67;1.58;;;11.30;84.20;;;;;;5013180;28;20184;-74
2022/04/24 01:37:33;;;;;;;2.05;1.70;;;11.30;84.50;;;;;;5013841;28;20283;-73
2022/04/24 01:39:59;;;;;;;1.00;1.00;;;;;;;;;;5014218;28;21454;-74
2022/04/24 01:42:25;;;;;;;1.17;1.05;;;11.20;84.50;;;;;;5009635;28;20588;-73
2022/04/24 01:44:51;;;;;;;1.05;1.05;;;11.20;84.90;;;;;;5011412;28;20211;-73
2022/04/24 01:47:17;;;;;;;1.30;1.20;;;;;;;;;;5012824;28;20272;-74
2022/04/24 01:49:43;;;;;;;6.30;1.17;;;;;;;;;;5010188;28;20690;-74
2022/04/24 01:52:09;;;;;;;1.20;1.10;;;11.00;83.10;;;;;;5006703;28;20181;-76
2022/04/24 01:54:35;;;;;;;0.80;0.80;;;11.00;81.70;;;;;;5006684;28;20196;-74
2022/04/24 01:57:01;;;;;;;1.17;1.13;;;11.00;83.70;;;;;;5010980;28;20981;-73
2022/04/24 01:59:27;;;;;;;1.45;1.35;;;;;;;;;;5011386;28;20218;-74
2022/04/24 02:01:53;;;;;;;1.70;1.60;;;11.00;84.30;;;;;;5009695;28;20196;-74
2022/04/24 02:04:22;;;;;;;1.52;1.52;;;;;;;;;;5009664;28;20189;-75
2022/04/24 02:06:49;;;;;;;1.20;1.20;;;;;;;;;;5014046;28;20632;-74
2022/04/24 02:09:15;;;;;;;1.45;1.45;;;10.90;82.60;;;;;;5008550;28;20189;-74
2022/04/24 02:11:40;;;;;;;1.45;1.30;;;10.80;82.10;;;;;;5013305;28;20654;-74
2022/04/24 02:14:06;;;;;;;2.60;1.77;;;10.80;84.20;;;;;;5008422;28;20215;-74
2022/04/24 02:16:32;;;;;;;1.85;1.60;;;;;;;;;;5007408;28;20244;-73
2022/04/24 02:18:58;;;;;;;1.52;1.42;;;10.80;84.60;;;;;;5010312;28;20933;-74
2022/04/24 02:21:24;;;;;;;1.42;1.33;;;10.80;84.90;;;;;;5010505;28;20212;-75
2022/04/24 02:23:51;;;;;;;1.67;1.58;;;;;;;;;;5011833;28;20743;-74
2022/04/24 02:26:21;;;;;;;1.85;1.65;;;10.80;85.30;;;;;;5015029;28;20216;-75
2022/04/24 02:28:48;;;;;;;2.78;1.30;;;;;;;;;;5016993;28;20184;-75
2022/04/24 02:31:14;;;;;;;1.48;1.30;;;10.70;83.90;;;;;;5017149;28;20187;-75
2022/04/24 02:33:40;;;;;;;1.50;1.40;;;;;;;;;;5013186;28;20180;-74
2022/04/24 02:36:06;;;;;;;2.00;1.70;;;10.60;84.80;;;;;;5012350;28;20215;-75
2022/04/24 02:38:32;;;;;;;2.25;2.03;;;10.60;84.90;;;;;;5010831;28;20796;-74
2022/04/24 02:40:58;;;;;;;3.92;1.75;;;10.60;86.20;;;;;;5008821;28;20181;-74
2022/04/24 02:43:24;;;;;;;1.45;1.35;;;10.60;86.30;;;;;;5017652;28;20216;-75
2022/04/24 02:45:50;;;;;;;2.05;1.88;;;10.60;86.40;;;;;;5010961;28;20304;-74
2022/04/24 02:48:16;;;;;;;2.58;1.83;;;10.60;86.40;;;;;;5015055;28;20268;-74
2022/04/24 02:50:42;;;;;;;2.20;1.50;;;10.60;86.60;;;;;;5011212;28;21013;-75
2022/04/24 02:53:07;;;;;;;1.70;1.70;;;10.60;86.70;;;;;;5014461;28;20196;-75
2022/04/24 02:55:33;;;;;;;1.25;1.15;;;10.50;86.80;;;;;;5017011;28;20191;-74
2022/04/24 02:57:59;;;;;;;1.10;1.00;;;10.40;86.40;;;;;;5009657;28;20548;-75
2022/04/24 03:00:39;;;;;;;6.80;1.53;;;10.40;86.10;;;;;;5015841;28;20184;-75
2022/04/24 03:03:07;;;;;;;2.23;0.90;;;10.30;86.10;;;;;;5011887;28;20267;-75
2022/04/24 03:05:33;;;;;;;1.00;1.00;;;10.30;86.30;;;;;;5010416;28;20216;-75
2022/04/24 03:07:59;;;;;;;0.90;0.90;;;;;;;;;;5011329;28;20203;-75
2022/04/24 03:10:26;;;;;;;7.77;1.40;;;10.20;87.30;;;;;;5015272;28;20231;-75
2022/04/24 03:12:51;;;;;;;1.10;1.10;;;10.20;86.70;;;;;;5017582;28;20180;-75
2022/04/24 03:15:17;;;;;;;1.13;1.10;;;;;;;;;;5014579;28;20204;-75
2022/04/24 03:17:44;;;;;;;2.60;0.70;;;10.20;86.70;;;;;;5012444;28;20589;-76
2022/04/24 03:20:11;;;;;;;1.10;1.10;;;10.20;86.40;;;;;;5013401;28;20185;-75
2022/04/24 03:22:38;;;;;;;1.63;1.50;;;10.20;87.70;;;;;;5012001;28;20242;-76
2022/04/24 03:25:06;;;;;;;2.57;1.00;;;10.20;88.10;;;;;;5015834;28;20215;-74
2022/04/24 03:27:32;;;;;;;2.50;1.30;;;10.10;88.20;;;;;;5013083;28;20324;-74
2022/04/24 03:29:58;;;;;;;1.10;1.10;;;;;;;;;;5017281;28;20617;-74
2022/04/24 03:32:24;;;;;;;1.33;1.23;;;10.00;87.00;;;;;;5011193;28;20231;-74
2022/04/24 03:34:50;;;;;;;1.00;1.00;;;10.00;87.60;;;;;;5016050;28;20587;-75
2022/04/24 03:37:17;;;;;;;3.70;1.07;;;10.00;87.80;;;;;;5013497;28;20185;-75
2022/04/24 03:39:43;;;;;;;1.00;1.00;;;;;;;;;;5012029;28;20181;-74
2022/04/24 03:42:09;;;;;;;1.40;1.17;;;10.00;88.30;;;;;;5008133;28;20274;-75
2022/04/24 03:44:35;;;;;;;1.10;1.10;;;10.00;88.10;;;;;;5009258;28;20291;-74
2022/04/24 03:47:01;;;;;;;1.10;1.10;;;;;;;;;;5010081;28;20208;-75
2022/04/24 03:49:27;;;;;;;2.70;1.77;;;10.00;87.80;;;;;;5012741;28;20976;-74
2022/04/24 03:51:53;;;;;;;1.00;0.90;;;10.00;87.80;;;;;;5015811;28;20268;-75
2022/04/24 03:54:20;;;;;;;1.03;0.97;;;10.00;88.50;;;;;;5011848;28;20264;-74
2022/04/24 03:56:46;;;;;;;2.03;1.30;;;10.00;89.20;;;;;;5010873;28;20231;-75
2022/04/24 03:59:12;;;;;;;1.23;1.23;;;10.00;89.30;;;;;;5009278;28;20359;-75
2022/04/24 04:01:38;;;;;;;1.53;1.43;;;;;;;;;;5011146;28;20193;-74
2022/04/24 04:04:04;;;;;;;3.13;1.40;;;10.00;88.90;;;;;;5009582;28;20589;-74
2022/04/24 04:06:30;;;;;;;1.40;1.27;;;;;;;;;;5010423;28;20232;-74
2022/04/24 04:08:55;;;;;;;7.00;2.00;;;10.00;88.00;;;;;;5010659;28;20212;-74
2022/04/24 04:11:22;;;;;;;1.60;1.50;;;10.00;87.80;;;;;;5010802;28;20228;-73
2022/04/24 04:13:48;;;;;;;1.87;1.70;;;;;;;;;;5014364;28;20181;-74
2022/04/24 04:16:14;;;;;;;2.03;1.53;;;10.10;87.90;;;;;;5009544;28;20203;-73
2022/04/24 04:18:40;;;;;;;1.33;0.87;;;10.20;88.10;;;;;;5008248;28;20191;-73
2022/04/24 04:21:06;;;;;;;1.40;1.13;;;10.20;88.20;;;;;;5013925;28;20227;-74
2022/04/24 04:23:32;;;;;;;1.00;1.00;;;10.20;87.60;;;;;;5007174;28;20185;-74
2022/04/24 04:25:58;;;;;;;1.73;1.27;;;;;;;;;;5016197;28;20290;-74
2022/04/24 04:28:24;;;;;;;1.60;1.50;;;10.30;87.30;;;;;;5005432;28;20181;-74
2022/04/24 04:30:50;;;;;;;1.40;1.40;;;10.30;87.60;;;;;;5006937;28;20628;-73
2022/04/24 04:33:16;;;;;;;2.83;1.27;;;;;;;;;;5012381;28;20180;-74
2022/04/24 04:35:42;;;;;;;1.97;1.10;;;10.40;87.50;;;;;;5012638;28;20875;-75
2022/04/24 04:38:08;;;;;;;1.85;1.15;;;;;;;;;;5009028;28;20192;-75
2022/04/24 04:40:34;;;;;;;1.80;1.10;;;10.50;87.40;;;;;;5009338;28;20352;-75
2022/04/24 04:42:59;;;;;;;2.80;1.20;;;10.60;87.40;;;;;;5012361;28;20889;-75
2022/04/24 04:45:25;;;;;;;4.60;1.70;;;10.60;87.40;;;;;;5009092;28;20229;-75
2022/04/24 04:47:51;;;;;;;1.80;1.70;;;10.70;88.10;;;;;;5010193;28;20187;-75
2022/04/24 04:50:18;;;;;;;2.60;1.50;;;10.70;87.80;;;;;;5008876;28;20263;-74
2022/04/24 04:52:44;;;;;;;1.50;1.50;;;10.70;87.90;;;;;;5012952;28;20811;-75
2022/04/24 04:55:10;;;;;;;4.63;2.05;;;10.80;87.80;;;;;;5005860;28;20247;-76
2022/04/24 04:57:36;;;;;;;2.50;2.30;;;10.90;88.70;;;;;;5008156;28;20184;-76
2022/04/24 05:00:05;;;;;;;2.92;2.70;;;10.90;88.00;;;;;;5010113;28;20188;-75
2022/04/24 05:02:31;;;;;;;2.30;2.17;;;10.90;87.80;;;;;;5012106;28;20180;-75
2022/04/24 05:05:00;;;;;;;2.27;2.07;;;11.00;87.70;;;;;;5009517;28;20604;-75
2022/04/24 05:07:26;;;;;;;6.00;3.03;;;11.00;87.30;;;;;;5008317;28;20242;-73
2022/04/24 05:09:52;;;;;;;2.50;2.30;;;;;;;;;;5013069;28;20666;-73
2022/04/24 05:12:18;;;;;;;2.30;2.10;;;;;;;;;;5009376;28;20184;-74
2022/04/24 05:14:44;;;;;;;2.85;2.67;;;;;;;;;;5013694;28;20188;-74
2022/04/24 05:17:10;;;;;;;4.25;2.60;;;;;;;;;;5008172;28;20200;-76
2022/04/24 05:19:36;;;;;;;4.88;2.65;;;11.20;88.00;;;;;;5012225;28;20191;-75
2022/04/24 05:22:02;;;;;;;6.10;2.70;;;;;;;;;;5008351;28;20182;-74
2022/04/24 05:24:28;;;;;;;2.70;2.53;;;11.20;88.50;;;;;;5007785;28;20181;-74
2022/04/24 05:26:54;;;;;;;3.08;2.88;;;11.20;88.10;;;;;;5011712;28;20176;-73
2022/04/24 05:29:20;;;;;;;2.00;1.90;;;;;;;;;;5007983;28;20699;-74
2022/04/24 05:31:46;;;;;;;6.68;3.35;;;11.30;88.10;;;;;;5003940;28;20655;-74
2022/04/24 05:34:12;;;;;;;3.30;2.85;;;;;;;;;;5010304;28;20303;-73
2022/04/24 05:36:38;;;;;;;4.85;3.10;;;;;;;;;;5016133;28;20184;-77
2022/04/24 05:39:04;;;;;;;7.78;2.25;;;11.40;87.90;;;;;;5011333;28;20187;-78
2022/04/24 05:41:30;;;;;;;4.30;3.13;;;;;;;;;;5010897;28;20184;-79
2022/04/24 05:43:56;;;;;;;2.97;2.67;;;11.50;87.60;;;;;;5008280;28;20188;-78
2022/04/24 05:46:23;;;;;;;6.20;2.50;;;11.60;87.40;;;;;;5008147;28;20230;-78
2022/04/24 05:48:49;;;;;;;3.05;2.03;;;11.60;87.20;;;;;;5039662;28;20181;-78
2022/04/24 05:51:15;;;;;;;2.05;1.98;;;;;;;;;;5014037;28;20590;-78
2022/04/24 05:53:40;;;;;;;2.55;2.42;;;11.70;87.00;;;;;;5008664;28;20206;-78
2022/04/24 05:56:07;;;;;;;3.03;2.47;;;;;;;;;;5011218;28;20188;-78
2022/04/24 05:58:32;;;;;;;2.60;2.40;;;11.80;87.00;;;;;;5007403;28;20207;-78
2022/04/24 06:00:58;;;;;;;3.28;2.00;;;;;;;;;;5011024;28;20216;-77
2022/04/24 06:03:24;;;;;;;1.40;1.40;;;;;;;;;;5012266;28;20184;-78
2022/04/24 06:05:53;;;;;;;2.00;1.90;;;12.10;86.50;;;;;;5010976;28;20304;-77
2022/04/24 06:08:19;;;;;;;1.35;1.35;;;12.20;86.50;;;;;;5012799;28;20713;-77
2022/04/24 06:10:45;;;;;;;1.35;1.25;;;;;;;;;;5014595;28;20185;-78
2022/04/24 06:13:11;;;;;;;1.02;0.98;;;;;;;;;;5012673;28;20180;-78
2022/04/24 06:15:38;;;;;;;1.70;0.65;;;12.50;85.30;;;;;;5010181;28;20216;-78
2022/04/24 06:18:04;;;;;;;0.93;0.88;;;12.50;84.90;;;;;;5012045;28;20222;-77
2022/04/24 06:20:30;;;;;;;3.55;0.80;;;12.60;84.70;;;;;;5015830;28;20840;-77
2022/04/24 06:22:58;;;;;;;3.42;0.57;;;12.60;84.70;;;;;;5011879;28;20185;-78
2022/04/24 06:25:34;;;;;;;0.60;0.60;;;12.70;84.60;;;;;;5008573;28;20216;-74
2022/04/24 06:28:02;;;;;;;0.70;0.70;;;12.80;84.30;;;;;;5009759;28;20187;-78
2022/04/24 06:30:29;;;;;;;3.03;0.60;;;12.90;84.10;;;;;;5013809;28;20203;-74
2022/04/24 06:32:57;;;;;;;0.95;0.73;;;12.90;84.00;;;;;;5012543;28;20446;-74
2022/04/24 06:35:23;;;;;;;3.75;1.30;;;13.00;83.80;;;;;;5012456;28;20203;-72
2022/04/24 06:37:54;;;;;;;0.85;0.85;;;13.10;83.70;;;;;;5009007;28;20223;-72
2022/04/24 06:40:20;;;;;;;0.77;0.77;;;13.10;83.70;;;;;;5010170;28;20645;-75
2022/04/24 06:42:53;;;;;;;4.30;1.33;;;13.20;83.50;;;;;;5010935;28;20180;-75
2022/04/24 06:45:54;;;;;;;4.10;1.40;;;13.30;83.40;;;;;;5010090;28;20213;-74
2022/04/24 06:48:20;;;;;;;1.23;1.23;;;13.40;83.20;;;;;;5004684;28;20188;-74
2022/04/24 06:50:47;;;;;;;2.40;1.40;;;13.50;83.10;;;;;;5001795;28;20197;-74
2022/04/24 06:53:16;;;;;;;2.90;1.55;;;13.50;82.90;;;;;;5002827;28;21529;-74
2022/04/24 06:55:42;;;;;;;1.48;1.38;;;13.60;82.40;;;;;;5006704;28;20314;-75
2022/04/24 06:58:11;;;;;;;0.95;0.82;;;13.70;82.20;;;;;;5006197;28;20203;-74
2022/04/24 07:00:39;;;;;;;1.75;1.65;;;13.80;82.10;;;;;;5004079;28;20189;-75
2022/04/24 07:03:24;;;;;;;3.80;1.08;;;13.90;81.90;;;;;;5005838;28;20197;-76
2022/04/24 07:05:57;;;;;;;1.10;1.02;;;14.00;82.00;;;;;;5003559;28;20257;-76
2022/04/24 07:08:24;;;;;;;2.25;1.60;;;14.00;81.70;;;;;;5005175;28;20215;-75
2022/04/24 07:10:50;;;;;;;1.70;1.60;;;14.10;81.50;;;;;;4989579;28;20545;-74
2022/04/24 07:13:16;;;;;;;2.35;1.70;;;14.20;81.50;;;;;;5004403;28;20659;-78
2022/04/24 07:15:42;;;;;;;1.55;1.45;;;14.30;81.20;;;;;;5004580;28;20308;-74
2022/04/24 07:18:10;;;;;;;2.28;2.10;;;14.40;81.40;;;;;;4988697;28;20216;-74
2022/04/24 07:20:39;;;;;;;4.68;1.60;;;14.50;80.70;;;;;;5005935;28;20196;-73
2022/04/24 07:23:05;;;;;;;3.63;1.50;;;14.50;80.50;;;;;;5007024;28;20589;-74
2022/04/24 07:25:35;;;;;;;1.77;1.40;;;14.60;80.60;;;;;;5009074;28;20309;-74
2022/04/24 07:28:01;;;;;;;1.58;1.40;;;14.70;80.50;;;;;;5006728;28;20181;-73
2022/04/24 07:30:27;;;;;;;2.63;1.45;;;14.80;80.00;;;;;;5007343;28;20687;-73
2022/04/24 07:32:54;;;;;;;2.92;1.58;;;14.90;80.30;;;;;;5009283;28;20846;-73
2022/04/24 07:35:25;;;;;;;1.20;1.20;;;15.00;79.50;;;;;;5010043;28;20200;-72
2022/04/24 07:37:52;;;;;;;1.25;1.17;;;15.00;79.80;;;;;;5012024;28;20234;-74
2022/04/24 07:40:19;;;;;;;4.28;1.35;;;15.20;78.50;;;;;;5011192;28;20620;-74
2022/04/24 07:42:53;;;;;;;1.30;1.20;;;15.30;78.90;;;;;;5008675;28;20239;-73
2022/04/24 07:45:24;;;;;;;1.60;1.30;;;15.40;77.40;;;;;;5011547;28;20232;-74
2022/04/24 07:47:51;;;;;;;0.80;0.80;;;15.50;77.60;;;;;;5013027;28;20177;-74
2022/04/24 07:50:20;;;;;;;1.33;1.33;;;15.60;77.10;;;;;;5012915;28;20448;-74
2022/04/24 07:52:47;;;;;;;2.20;1.48;;;15.70;77.00;;;;;;5004984;28;20247;-72
2022/04/24 07:55:17;;;;;;;0.95;0.95;;;15.80;77.20;;;;;;5011458;28;20184;-72
2022/04/24 07:57:42;;;;;;;1.05;1.05;;;16.00;76.20;;;;;;5006684;28;20695;-73
2022/04/24 08:00:12;;;;;;;1.48;1.08;;;16.10;76.20;;;;;;5010864;28;20193;-73
2022/04/24 08:03:04;;;;;;;2.58;0.90;;;16.20;75.50;;;;;;5008221;28;20706;-73
2022/04/24 08:05:38;;;;;;;1.33;1.30;;;16.30;75.80;;;;;;5011125;28;20217;-72
2022/04/24 08:08:08;;;;;;;1.60;1.50;;;16.40;75.10;;;;;;5011374;28;20210;-71
2022/04/24 08:10:39;;;;;;;1.40;0.80;;;16.50;74.40;;;;;;5012658;28;21126;-72
2022/04/24 08:13:06;;;;;;;1.13;0.85;;;16.60;75.00;;;;;;5009899;28;20212;-73
2022/04/24 08:15:33;;;;;;;0.65;0.65;;;16.70;74.10;;;;;;5010017;28;20212;-73
2022/04/24 08:17:59;;;;;;;2.05;0.90;;;16.80;74.40;;;;;;5010141;28;20193;-73
2022/04/24 08:20:25;;;;;;;1.10;1.00;;;16.90;72.90;;;;;;5010911;28;20243;-73
2022/04/24 08:22:53;;;;;;;4.20;0.90;;;17.10;73.40;;;;;;5012178;28;20192;-73
2022/04/24 08:25:21;;;;;;;3.80;0.70;;;17.20;74.50;;;;;;5011288;28;20311;-73
2022/04/24 08:27:48;;;;;;;1.70;1.00;;;17.40;73.10;;;;;;5010206;28;20479;-73
2022/04/24 08:30:17;;;;;;;4.10;1.15;;;17.50;73.10;;;;;;5016003;28;20192;-73
2022/04/24 08:32:44;;;;;;;3.95;1.20;;;17.70;72.80;;;;;;5013543;28;20800;-73
2022/04/24 08:35:12;;;;;;;3.40;0.90;;;17.80;73.80;;;;;;5011771;28;20196;-73
2022/04/24 08:37:38;;;;;;;0.90;0.90;;;17.90;73.90;;;;;;5007237;28;20176;-73
2022/04/24 08:40:06;;;;;;;0.90;0.90;;;18.10;72.90;;;;;;5010263;28;20292;-73
2022/04/24 08:42:33;;;;;;;3.03;1.23;;;18.30;71.90;;;;;;5008158;28;20189;-73
2022/04/24 08:44:59;;;;;;;1.35;1.25;;;18.50;72.10;;;;;;5008113;28;20476;-73
2022/04/24 08:47:27;;;;;;;2.88;1.42;;;18.60;72.10;;;;;;5014631;28;20181;-72
2022/04/24 08:50:00;;;;;;;5.20;1.80;;;18.80;70.70;;;;;;5010936;28;20188;-73
2022/04/24 08:52:27;;;;;;;1.33;1.17;;;19.10;69.50;;;;;;5009957;28;20185;-73
2022/04/24 08:54:54;;;;;;;1.05;1.02;;;19.20;71.10;;;;;;5010294;28;20199;-73
2022/04/24 08:57:21;;;;;;;3.22;1.40;;;19.40;70.00;;;;;;5009300;28;20191;-73
2022/04/24 08:59:47;;;;;;;1.02;1.02;;;19.50;70.70;;;;;;5006410;28;20180;-73
2022/04/24 09:02:15;;;;;;;1.48;0.80;;;19.50;70.70;;;;;;5011327;28;20242;-73
2022/04/24 09:04:41;;;;;;;1.73;1.10;;;19.90;68.80;;;;;;5012373;28;20652;-73
2022/04/24 09:07:09;;;;;;;4.97;0.82;;;20.10;68.80;;;;;;5011116;28;20184;-73
2022/04/24 09:09:42;;;;;;;3.85;0.80;;;20.30;68.00;;;;;;5005172;28;20251;-73
2022/04/24 09:12:16;;;;;;;3.42;0.82;;;20.40;66.50;;;;;;5006167;28;20181;-75
2022/04/24 09:14:51;;;;;;;1.50;0.90;;;20.70;65.70;;;;;;5004179;28;20208;-73
2022/04/24 09:17:18;;;;;;;2.42;0.70;;;20.90;64.70;;;;;;5009320;28;20188;-73
2022/04/24 09:19:45;;;;;;;3.40;0.82;;;21.40;65.10;;;;;;5009989;28;20180;-74
2022/04/24 09:22:11;;;;;;;0.60;0.60;;;21.90;63.90;;;;;;5006694;28;20262;-74
2022/04/24 09:24:41;;;;;;;0.45;0.45;;;;;;;;;;5009851;28;20227;-75
2022/04/24 09:27:08;;;;;;;1.50;0.55;;;22.70;61.20;;;;;;5011069;28;20192;-74
2022/04/24 09:29:33;;;;;;;2.20;0.88;;;22.70;61.20;;;;;;5009159;28;20188;-74
2022/04/24 09:31:59;;;;;;;0.60;0.60;;;23.80;60.70;;;;;;5007009;28;20602;-74
2022/04/24 09:34:33;;;;;;;1.00;0.60;;;24.60;60.50;;;;;;5009456;28;20184;-74
2022/04/24 09:37:03;;;;;;;0.60;0.50;;;25.40;58.30;;;;;;5011293;28;20185;-74
2022/04/24 09:39:32;;;;;;;0.70;0.60;;;26.10;57.50;;;;;;5012070;28;20184;-74
2022/04/24 09:42:05;;;;;;;1.67;0.50;;;26.80;55.80;;;;;;5011433;28;20207;-74
2022/04/24 09:44:44;;;;;;;2.70;0.70;;;27.60;55.10;;;;;;5004597;28;20176;-74
2022/04/24 09:47:13;;;;;;;0.60;0.60;;;28.20;55.30;;;;;;5005356;28;20741;-74
2022/04/24 09:49:41;;;;;;;1.45;0.93;;;28.70;53.40;;;;;;5011458;28;20234;-74
2022/04/24 09:52:11;;;;;;;5.13;0.77;;;29.30;54.80;;;;;;5010910;28;20658;-74
2022/04/24 09:54:45;;;;;;;3.30;0.80;;;29.30;55.00;;;;;;5007783;28;20218;-75
2022/04/24 09:57:14;;;;;;;2.33;1.10;;;30.40;53.70;;;;;;5012183;28;20222;-74
2022/04/24 09:59:43;;;;;;;0.82;0.82;;;31.00;50.60;;;;;;5007449;28;20181;-74
2022/04/24 10:02:10;;;;;;;0.52;0.52;;;31.50;50.60;;;;;;5003590;28;20225;-74
2022/04/24 10:04:38;;;;;;;3.38;0.80;;;31.70;51.90;;;;;;5006399;28;20187;-74
2022/04/24 10:07:12;;;;;;;2.50;0.60;;;32.00;51.10;;;;;;5006333;28;20188;-74
2022/04/24 10:09:40;;;;;;;0.47;0.47;;;32.20;51.50;;;;;;5010185;28;20187;-73
2022/04/24 10:12:18;;;;;;;1.77;0.75;;;32.50;51.10;;;;;;5004267;28;20327;-73
2022/04/24 10:14:44;;;;;;;0.70;0.70;;;;;;;;;;5007251;28;20224;-75
2022/04/24 10:17:26;;;;;;;0.60;0.60;;;33.20;46.50;;;;;;5009305;28;20862;-73
2022/04/24 10:20:16;;;;;;;1.45;0.80;;;33.30;46.60;;;;;;5007637;28;20787;-74
2022/04/24 10:22:47;;;;;;;0.82;0.80;;;33.40;49.50;;;;;;5013890;28;20213;-73
2022/04/24 10:25:17;;;;;;;1.33;0.68;;;33.50;49.20;;;;;;5010968;28;20771;-73
2022/04/24 10:27:48;;;;;;;0.95;0.70;;;33.70;45.40;;;;;;5007863;28;20875;-74
2022/04/24 10:30:17;;;;;;;0.70;0.70;;;;;;;;;;5007647;28;20185;-75
2022/04/24 10:32:44;;;;;;;0.63;0.60;;;;;;;;;;5006451;28;20184;-73
2022/04/24 10:35:19;;;;;;;3.10;0.70;;;33.90;48.30;;;;;;5006091;28;20209;-74
2022/04/24 10:37:48;;;;;;;2.47;0.60;;;34.30;46.80;;;;;;5011682;28;20202;-74
2022/04/24 10:40:17;;;;;;;1.23;0.60;;;34.40;48.60;;;;;;5009288;28;20191;-74
2022/04/24 10:42:43;;;;;;;0.63;0.50;;;;;;;;;;5008283;28;20191;-74
2022/04/24 10:45:16;;;;;;;0.57;0.57;;;34.80;46.70;;;;;;5014298;28;20234;-74
2022/04/24 10:47:53;;;;;;;0.70;0.70;;;35.00;46.40;;;;;;5013824;28;20263;-74
2022/04/24 10:50:20;;;;;;;0.75;0.65;;;35.20;45.30;;;;;;5014414;28;20192;-74
2022/04/24 10:52:48;;;;;;;0.77;0.77;;;35.40;47.00;;;;;;5014701;28;20188;-74
2022/04/24 10:55:22;;;;;;;0.70;0.70;;;35.70;46.70;;;;;;5008756;28;20231;-74
2022/04/24 10:58:00;;;;;;;2.20;0.85;;;35.80;46.90;;;;;;5011929;28;20322;-74
2022/04/24 11:00:34;;;;;;;0.95;0.80;;;35.90;46.30;;;;;;5013225;28;20191;-74
2022/04/24 11:03:11;;;;;;;1.08;0.77;;;36.30;45.40;;;;;;5012205;28;20236;-74
2022/04/24 11:05:39;;;;;;;1.02;0.52;;;36.40;45.20;;;;;;5009790;28;20185;-74
2022/04/24 11:08:07;;;;;;;3.00;0.70;;;36.80;45.30;;;;;;5008890;28;20642;-74
2022/04/24 11:10:43;;;;;;;0.70;0.55;;;36.90;45.40;;;;;;5012633;28;20199;-75
2022/04/24 11:13:14;;;;;;;1.35;0.57;;;37.60;45.20;;;;;;5013065;28;20686;-75
2022/04/24 11:15:42;;;;;;;0.60;0.60;;;37.80;44.50;;;;;;5011748;28;20219;-75
2022/04/24 11:18:21;;;;;;;3.33;0.70;;;37.90;43.40;;;;;;5010799;28;20176;-75
2022/04/24 11:21:03;;;;;;;1.27;0.70;;;38.00;42.60;;;;;;5008634;28;20207;-75
2022/04/24 11:23:32;;;;;;;5.50;0.65;;;37.90;40.00;;;;;;5012739;28;20187;-75
2022/04/24 11:25:59;;;;;;;0.50;0.50;;;37.90;42.80;;;;;;5012775;28;20192;-75
2022/04/24 11:28:34;;;;;;;1.08;0.60;;;37.90;43.30;;;;;;5012157;28;20214;-75
2022/04/24 11:31:10;;;;;;;1.58;0.80;;;38.10;42.40;;;;;;5013636;28;20195;-75
2022/04/24 11:33:38;;;;;;;1.75;0.80;;;38.10;40.70;;;;;;5010168;28;20188;-75
2022/04/24 11:36:05;;;;;;;0.63;0.63;;;38.20;40.90;;;;;;5011520;28;20219;-75
2022/04/24 11:38:32;;;;;;;1.27;0.90;;;39.00;42.40;;;;;;5011214;28;20185;-75
2022/04/24 11:41:03;;;;;;;2.88;0.70;;;39.10;43.40;;;;;;5012403;28;20263;-75
2022/04/24 11:43:29;;;;;;;3.63;0.77;;;39.10;41.00;;;;;;5014000;28;20192;-75
2022/04/24 11:51:24;;;;;;;2.33;0.82;;;39.30;42.90;;;;;;5009345;28;20191;-75
2022/04/24 11:53:50;;;;;;;2.38;1.00;;;39.60;42.50;;;;;;5012681;28;20176;-75
2022/04/24 11:56:17;;;;;;;3.30;0.50;;;39.90;41.60;;;;;;5011856;28;20250;-75
2022/04/24 11:58:44;;;;;;;1.77;0.77;;;40.30;41.60;;;;;;5011502;28;20181;-75
2022/04/24 12:01:13;;;;;;;0.90;0.90;;;40.40;40.40;;;;;;5014060;28;20914;-75
2022/04/24 12:03:46;;;;;;;0.75;0.70;;;40.50;38.80;;;;;;5013018;28;20176;-75
2022/04/24 12:06:13;;;;;;;2.60;0.77;;;40.50;38.90;;;;;;5015645;28;20180;-75
2022/04/24 12:08:52;;;;;;;1.55;0.93;;;40.70;38.50;;;;;;5013654;28;20191;-75
2022/04/24 12:11:26;;;;;;;3.05;0.65;;;41.00;39.20;;;;;;5013222;28;20862;-75
2022/04/24 12:14:07;;;;;;;1.52;0.82;;;41.20;40.40;;;;;;5010845;28;20267;-75
2022/04/24 12:16:56;;;;;;;0.55;0.55;;;41.40;38.70;;;;;;5009262;28;20989;-75
2022/04/24 12:19:22;;;;;;;3.50;0.70;;;41.40;38.70;;;;;;5011159;28;20188;-75
2022/04/24 12:21:50;;;;;;;2.83;0.60;;;41.50;38.10;;;;;;5009600;28;20346;-75
2022/04/24 12:24:17;;;;;;;1.67;1.00;;;41.50;38.40;;;;;;5009350;28;20301;-75
2022/04/24 12:26:51;;;;;;;0.85;0.85;;;41.60;38.60;;;;;;5012681;28;20328;-75
2022/04/24 12:29:17;;;;;;;1.58;0.63;;;41.60;38.60;;;;;;5011550;28;20183;-75
2022/04/24 12:31:47;;;;;;;7.05;0.90;;;41.80;38.20;;;;;;5013937;28;20180;-75
2022/04/24 12:34:14;;;;;;;0.82;0.82;;;41.90;38.80;;;;;;5009836;28;20172;-75
2022/04/24 12:36:50;;;;;;;0.60;0.60;;;41.90;39.40;;;;;;5012460;28;20215;-75
2022/04/24 12:39:26;;;;;;;1.25;0.70;;;41.80;39.10;;;;;;5013681;28;20269;-75
2022/04/24 12:41:52;;;;;;;1.27;0.70;;;41.30;37.40;;;;;;5013161;28;20187;-75
2022/04/24 12:44:18;;;;;;;2.25;1.00;;;41.30;39.70;;;;;;5013603;28;20187;-75
2022/04/24 12:46:46;;;;;;;5.25;0.63;;;41.30;38.90;;;;;;5010191;28;20595;-75
2022/04/24 12:49:13;;;;;;;1.52;0.93;;;41.30;38.30;;;;;;5008603;28;20184;-75
2022/04/24 12:51:39;;;;;;;0.70;0.60;;;41.30;40.80;;;;;;5007708;28;20256;-75
2022/04/24 12:54:04;;;;;;;1.67;0.73;;;41.30;40.70;;;;;;5005846;28;20184;-74
2022/04/24 12:56:32;;;;;;;1.35;0.60;;;41.20;38.30;;;;;;5011290;28;20294;-75
2022/04/24 12:58:58;;;;;;;0.63;0.63;;;40.70;37.60;;;;;;5008368;28;21381;-74
2022/04/24 13:01:25;;;;;;;4.90;0.55;;;40.60;37.70;;;;;;5013733;28;20194;-75
2022/04/24 13:03:54;;;;;;;1.08;0.65;;;40.90;37.20;;;;;;5012682;28;20271;-75
2022/04/24 13:06:29;;;;;;;3.38;0.57;;;40.90;38.20;;;;;;5013125;28;20249;-74
2022/04/24 13:08:54;;;;;;;0.75;0.50;;;40.30;39.40;;;;;;5000293;28;20710;-75
2022/04/24 13:11:23;;;;;;;2.22;0.98;;;38.70;38.10;;;;;;5010839;28;20184;-74